Time,TemperatureF,DewpointF,PressureIn,WindDirection,WindDirectionDegrees,WindSpeedMPH,WindSpeedGustMPH,Humidity,HourlyPrecipIn,Conditions,Clouds,dailyrainin,SoftwareType,DateUTC
2013-02-18 00:00:00,31.8,20.4,29.77,East,100,0.0,0.0,62,0.00,,---,0.00,VWS V14.01,2013-02-18 07:00:00,
2013-02-18 00:05:00,31.6,20.5,29.79,East,100,0.0,0.0,63,0.00,,---,0.00,VWS V14.01,2013-02-18 07:05:00,
2013-02-18 00:10:00,31.5,20.8,29.79,East,100,0.0,0.0,64,0.00,,---,0.00,VWS V14.01,2013-02-18 07:10:00,
2013-02-18 00:15:00,31.6,21.1,29.79,East,100,0.0,0.0,65,0.00,,---,0.00,VWS V14.01,2013-02-18 07:15:00,
2013-02-18 00:20:00,31.7,21.3,29.79,East,100,0.0,0.0,65,0.00,,---,0.00,VWS V14.01,2013-02-18 07:20:00,
2013-02-18 00:25:00,31.5,21.1,29.79,NE,52,5.9,7.4,65,0.00,,---,0.00,VWS V14.01,2013-02-18 07:25:00,
2013-02-18 00:30:00,31.3,20.9,29.79,East,91,0.0,0.0,65,0.00,,---,0.00,VWS V14.01,2013-02-18 07:30:00,
2013-02-18 00:35:00,31.2,20.8,29.80,East,91,0.0,0.0,65,0.00,,---,0.00,VWS V14.01,2013-02-18 07:35:00,
2013-02-18 00:40:00,31.1,20.6,29.80,ESE,121,0.0,0.0,65,0.00,,---,0.00,VWS V14.01,2013-02-18 07:40:00,
2013-02-18 00:45:00,30.9,20.5,29.80,SSE,152,0.0,0.0,65,0.00,,---,0.00,VWS V14.01,2013-02-18 07:45:00,
2013-02-18 00:50:00,31.0,20.6,29.80,SE,132,3.2,4.3,65,0.00,,---,0.00,VWS V14.01,2013-02-18 07:50:00,
2013-02-18 00:55:00,31.2,20.6,29.81,SE,136,3.5,5.0,64,0.00,,---,0.00,VWS V14.01,2013-02-18 07:55:00,
2013-02-18 01:00:00,31.2,20.6,29.81,SE,136,0.0,0.0,64,0.00,,---,0.00,VWS V14.01,2013-02-18 08:00:00,
2013-02-18 01:05:00,31.3,20.5,29.81,SE,136,0.0,0.0,64,0.00,,---,0.00,VWS V14.01,2013-02-18 08:05:00,
2013-02-18 01:10:00,31.5,20.5,29.81,SE,136,0.0,0.0,63,0.00,,---,0.00,VWS V14.01,2013-02-18 08:10:00,
2013-02-18 01:15:00,31.6,20.4,29.82,SE,136,0.0,0.0,63,0.00,,---,0.00,VWS V14.01,2013-02-18 08:15:00,
2013-02-18 01:20:00,31.7,20.4,29.82,SE,136,0.0,0.0,63,0.00,,---,0.00,VWS V14.01,2013-02-18 08:20:00,
2013-02-18 01:25:00,31.7,20.4,29.82,SE,136,0.0,0.0,62,0.00,,---,0.00,VWS V14.01,2013-02-18 08:25:00,
2013-02-18 01:30:00,31.7,20.3,29.82,SE,136,0.0,0.0,62,0.00,,---,0.00,VWS V14.01,2013-02-18 08:30:00,
2013-02-18 01:35:00,31.6,20.1,29.82,SE,136,0.0,0.0,62,0.00,,---,0.00,VWS V14.01,2013-02-18 08:35:00,
2013-02-18 01:40:00,31.2,20.0,29.82,SE,136,0.0,0.0,63,0.00,,---,0.00,VWS V14.01,2013-02-18 08:40:00,
2013-02-18 01:45:00,31.2,20.2,29.82,SE,136,0.0,0.0,63,0.00,,---,0.00,VWS V14.01,2013-02-18 08:45:00,
2013-02-18 01:50:00,31.4,20.4,29.83,SE,136,0.0,0.0,63,0.00,,---,0.00,VWS V14.01,2013-02-18 08:50:00,
2013-02-18 01:55:00,31.6,20.4,29.83,SE,136,0.0,0.0,63,0.00,,---,0.00,VWS V14.01,2013-02-18 08:55:00,
2013-02-18 02:00:00,31.6,20.3,29.83,SE,136,0.0,0.0,62,0.00,,---,0.00,VWS V14.01,2013-02-18 09:00:00,
2013-02-18 02:06:00,31.7,20.4,29.83,SE,136,0.0,0.0,63,0.00,,---,0.00,VWS V14.01,2013-02-18 09:06:00,
2013-02-18 02:11:00,31.7,20.3,29.84,SE,136,0.0,0.0,62,0.00,,---,0.00,VWS V14.01,2013-02-18 09:11:00,
2013-02-18 02:16:00,31.7,20.4,29.84,SE,136,0.0,0.0,62,0.00,,---,0.00,VWS V14.01,2013-02-18 09:16:00,
2013-02-18 02:21:00,31.6,20.2,29.84,SE,136,0.0,0.0,62,0.00,,---,0.00,VWS V14.01,2013-02-18 09:21:00,
2013-02-18 02:26:00,31.3,20.0,29.84,SE,136,0.0,0.0,63,0.00,,---,0.00,VWS V14.01,2013-02-18 09:26:00,
2013-02-18 02:31:00,31.3,20.2,29.84,SE,136,0.0,0.0,63,0.00,,---,0.00,VWS V14.01,2013-02-18 09:31:00,
2013-02-18 02:36:00,31.2,20.2,29.84,SE,136,0.0,0.0,63,0.00,,---,0.00,VWS V14.01,2013-02-18 09:36:00,
2013-02-18 02:41:00,31.1,20.1,29.84,SE,136,0.0,0.0,63,0.00,,---,0.00,VWS V14.01,2013-02-18 09:41:00,
2013-02-18 02:46:00,30.9,20.1,29.84,East,79,0.0,0.0,64,0.00,,---,0.00,VWS V14.01,2013-02-18 09:46:00,
2013-02-18 02:51:00,30.9,20.1,29.84,East,79,0.0,0.0,64,0.00,,---,0.00,VWS V14.01,2013-02-18 09:51:00,
2013-02-18 02:56:00,30.7,20.0,29.84,East,79,0.0,0.0,64,0.00,,---,0.00,VWS V14.01,2013-02-18 09:56:00,
2013-02-18 03:01:00,30.7,20.0,29.84,East,79,0.0,0.0,64,0.00,,---,0.00,VWS V14.01,2013-02-18 10:01:00,
2013-02-18 03:06:00,30.4,19.8,29.84,East,79,0.0,0.0,64,0.00,,---,0.00,VWS V14.01,2013-02-18 10:06:00,
2013-02-18 03:11:00,30.2,19.9,29.84,East,79,0.0,0.0,65,0.00,,---,0.00,VWS V14.01,2013-02-18 10:11:00,
2013-02-18 03:16:00,30.2,20.0,29.84,East,79,0.0,0.0,65,0.00,,---,0.00,VWS V14.01,2013-02-18 10:16:00,
2013-02-18 03:21:00,30.2,20.0,29.84,East,79,0.0,0.0,65,0.00,,---,0.00,VWS V14.01,2013-02-18 10:21:00,
2013-02-18 03:26:00,30.3,20.0,29.84,East,79,0.0,0.0,65,0.00,,---,0.00,VWS V14.01,2013-02-18 10:26:00,
2013-02-18 03:31:00,30.4,20.1,29.84,East,79,0.0,0.0,65,0.00,,---,0.00,VWS V14.01,2013-02-18 10:31:00,
2013-02-18 03:36:00,30.5,20.1,29.84,East,79,0.0,0.0,65,0.00,,---,0.00,VWS V14.01,2013-02-18 10:36:00,
2013-02-18 03:41:00,30.7,20.2,29.84,East,79,0.0,0.0,65,0.00,,---,0.00,VWS V14.01,2013-02-18 10:41:00,
2013-02-18 03:46:00,30.6,20.0,29.84,East,79,0.0,0.0,64,0.00,,---,0.00,VWS V14.01,2013-02-18 10:46:00,
2013-02-18 03:51:00,30.5,19.9,29.84,East,79,0.0,0.0,64,0.00,,---,0.00,VWS V14.01,2013-02-18 10:51:00,
2013-02-18 03:56:00,30.4,19.9,29.85,East,79,0.0,0.0,65,0.00,,---,0.00,VWS V14.01,2013-02-18 10:56:00,
2013-02-18 04:01:00,30.4,20.0,29.85,East,79,0.0,0.0,65,0.00,,---,0.00,VWS V14.01,2013-02-18 11:01:00,
2013-02-18 04:06:00,30.3,19.9,29.85,East,79,0.0,0.0,65,0.00,,---,0.00,VWS V14.01,2013-02-18 11:06:00,
2013-02-18 04:11:00,30.2,19.9,29.86,East,79,0.0,0.0,65,0.00,,---,0.00,VWS V14.01,2013-02-18 11:11:00,
2013-02-18 04:16:00,30.2,20.0,29.86,East,79,0.0,0.0,65,0.00,,---,0.00,VWS V14.01,2013-02-18 11:16:00,
2013-02-18 04:21:00,30.2,20.0,29.86,East,79,0.0,0.0,65,0.00,,---,0.00,VWS V14.01,2013-02-18 11:21:00,
2013-02-18 04:26:00,30.1,20.0,29.86,East,79,0.0,0.0,66,0.00,,---,0.00,VWS V14.01,2013-02-18 11:26:00,
2013-02-18 04:31:00,30.0,19.8,29.86,East,79,0.0,0.0,65,0.00,,---,0.00,VWS V14.01,2013-02-18 11:31:00,
2013-02-18 04:36:00,30.0,19.9,29.86,East,79,0.0,0.0,66,0.00,,---,0.00,VWS V14.01,2013-02-18 11:36:00,
2013-02-18 04:41:00,30.0,20.0,29.87,East,79,0.0,0.0,66,0.00,,---,0.00,VWS V14.01,2013-02-18 11:41:00,
2013-02-18 04:46:00,29.9,19.9,29.87,East,79,0.0,0.0,66,0.00,,---,0.00,VWS V14.01,2013-02-18 11:46:00,
2013-02-18 04:51:00,29.8,19.8,29.87,East,79,0.0,0.0,66,0.00,,---,0.00,VWS V14.01,2013-02-18 11:51:00,
2013-02-18 04:56:00,29.8,19.8,29.88,East,79,0.0,0.0,66,0.00,,---,0.00,VWS V14.01,2013-02-18 11:56:00,
2013-02-18 05:01:00,29.7,19.9,29.88,East,79,0.0,0.0,66,0.00,,---,0.00,VWS V14.01,2013-02-18 12:01:00,
2013-02-18 05:06:00,29.6,19.8,29.88,East,79,0.0,0.0,66,0.00,,---,0.00,VWS V14.01,2013-02-18 12:06:00,
2013-02-18 05:11:00,29.6,19.9,29.88,East,79,0.0,0.0,67,0.00,,---,0.00,VWS V14.01,2013-02-18 12:11:00,
2013-02-18 05:16:00,29.6,19.9,29.89,East,79,0.0,0.0,67,0.00,,---,0.00,VWS V14.01,2013-02-18 12:16:00,
2013-02-18 05:21:00,29.6,20.0,29.89,East,79,0.0,0.0,67,0.00,,---,0.00,VWS V14.01,2013-02-18 12:21:00,
2013-02-18 05:26:00,29.5,19.9,29.89,East,79,0.0,0.0,67,0.00,,---,0.00,VWS V14.01,2013-02-18 12:26:00,
2013-02-18 05:31:00,29.4,19.9,29.89,East,79,0.0,0.0,67,0.00,,---,0.00,VWS V14.01,2013-02-18 12:31:00,
2013-02-18 05:36:00,29.1,19.7,29.89,East,79,0.0,0.0,68,0.00,,---,0.00,VWS V14.01,2013-02-18 12:36:00,
2013-02-18 05:41:00,28.9,19.6,29.89,East,79,0.0,0.0,68,0.00,,---,0.00,VWS V14.01,2013-02-18 12:41:00,
2013-02-18 05:46:00,28.7,19.5,29.89,East,79,0.0,0.0,68,0.00,,---,0.00,VWS V14.01,2013-02-18 12:46:00,
2013-02-18 05:51:00,28.6,19.6,29.89,East,79,0.0,0.0,69,0.00,,---,0.00,VWS V14.01,2013-02-18 12:51:00,
2013-02-18 05:56:00,28.5,19.7,29.90,East,79,0.0,0.0,69,0.00,,---,0.00,VWS V14.01,2013-02-18 12:56:00,
2013-02-18 06:02:00,28.4,19.7,29.90,East,79,0.0,0.0,69,0.00,,---,0.00,VWS V14.01,2013-02-18 13:02:00,
2013-02-18 06:07:00,28.2,19.6,29.90,East,79,0.0,0.0,70,0.00,,---,0.00,VWS V14.01,2013-02-18 13:07:00,
2013-02-18 06:12:00,28.0,19.7,29.91,East,79,0.0,0.0,71,0.00,,---,0.00,VWS V14.01,2013-02-18 13:12:00,
2013-02-18 06:17:00,28.0,19.9,29.91,East,79,0.0,0.0,71,0.00,,---,0.00,VWS V14.01,2013-02-18 13:17:00,
2013-02-18 06:22:00,27.9,19.8,29.91,East,79,0.0,0.0,71,0.00,,---,0.00,VWS V14.01,2013-02-18 13:22:00,
2013-02-18 06:27:00,27.8,19.9,29.92,East,79,0.0,0.0,72,0.00,,---,0.00,VWS V14.01,2013-02-18 13:27:00,
2013-02-18 06:32:00,27.7,20.0,29.92,East,79,0.0,0.0,72,0.00,,---,0.00,VWS V14.01,2013-02-18 13:32:00,
2013-02-18 06:37:00,27.6,20.1,29.92,East,79,0.0,0.0,73,0.00,,---,0.00,VWS V14.01,2013-02-18 13:37:00,
2013-02-18 06:42:00,27.6,20.2,29.92,East,79,0.0,0.0,73,0.00,,---,0.00,VWS V14.01,2013-02-18 13:42:00,
2013-02-18 06:47:00,27.6,20.2,29.93,East,79,0.0,0.0,73,0.00,,---,0.00,VWS V14.01,2013-02-18 13:47:00,
2013-02-18 06:52:00,27.5,20.2,29.93,East,79,0.0,0.0,74,0.00,,---,0.00,VWS V14.01,2013-02-18 13:52:00,
2013-02-18 06:57:00,27.2,20.0,29.94,East,79,0.0,0.0,74,0.00,,---,0.00,VWS V14.01,2013-02-18 13:57:00,
2013-02-18 07:02:00,27.0,20.0,29.94,East,79,0.0,0.0,75,0.00,,---,0.00,VWS V14.01,2013-02-18 14:02:00,
2013-02-18 07:07:00,27.0,20.2,29.95,East,79,0.0,0.0,75,0.00,,---,0.00,VWS V14.01,2013-02-18 14:07:00,
2013-02-18 07:12:00,26.9,20.2,29.95,East,79,0.0,0.0,75,0.00,,---,0.00,VWS V14.01,2013-02-18 14:12:00,
2013-02-18 07:17:00,26.9,20.3,29.95,East,79,0.0,0.0,76,0.00,,---,0.00,VWS V14.01,2013-02-18 14:17:00,
2013-02-18 07:22:00,26.9,20.5,29.95,East,79,0.0,0.0,77,0.00,,---,0.00,VWS V14.01,2013-02-18 14:22:00,
2013-02-18 07:27:00,27.1,20.8,29.95,East,79,0.0,0.0,77,0.00,,---,0.00,VWS V14.01,2013-02-18 14:27:00,
2013-02-18 07:32:00,27.1,20.9,29.96,East,79,0.0,0.0,77,0.00,,---,0.00,VWS V14.01,2013-02-18 14:32:00,
2013-02-18 07:37:00,27.3,21.1,29.96,East,79,0.0,0.0,77,0.00,,---,0.00,VWS V14.01,2013-02-18 14:37:00,
2013-02-18 07:42:00,27.4,21.3,29.96,East,79,0.0,0.0,78,0.00,,---,0.00,VWS V14.01,2013-02-18 14:42:00,
2013-02-18 07:47:00,27.6,21.6,29.97,East,79,0.0,0.0,78,0.00,,---,0.00,VWS V14.01,2013-02-18 14:47:00,
2013-02-18 07:52:00,27.7,21.6,29.97,East,79,0.0,0.0,78,0.00,,---,0.00,VWS V14.01,2013-02-18 14:52:00,
2013-02-18 07:57:00,27.9,21.8,29.97,East,79,0.0,0.0,77,0.00,,---,0.00,VWS V14.01,2013-02-18 14:57:00,
2013-02-18 08:02:00,28.0,21.8,29.97,East,79,0.0,0.0,77,0.00,,---,0.00,VWS V14.01,2013-02-18 15:02:00,
2013-02-18 08:07:00,28.0,21.7,29.98,East,79,0.0,0.0,77,0.00,,---,0.00,VWS V14.01,2013-02-18 15:07:00,
2013-02-18 08:12:00,28.1,21.5,29.98,East,79,0.0,0.0,76,0.00,,---,0.00,VWS V14.01,2013-02-18 15:12:00,
2013-02-18 08:17:00,28.0,21.2,29.98,East,79,0.0,0.0,75,0.00,,---,0.00,VWS V14.01,2013-02-18 15:17:00,
2013-02-18 08:22:00,28.2,21.3,29.98,East,79,0.0,0.0,75,0.00,,---,0.00,VWS V14.01,2013-02-18 15:22:00,
2013-02-18 08:27:00,28.3,21.4,29.98,East,79,0.0,0.0,75,0.00,,---,0.00,VWS V14.01,2013-02-18 15:27:00,
2013-02-18 08:32:00,28.6,21.6,29.98,East,79,0.0,0.0,75,0.00,,---,0.00,VWS V14.01,2013-02-18 15:32:00,
2013-02-18 08:37:00,28.9,21.8,29.98,East,79,0.0,0.0,74,0.00,,---,0.00,VWS V14.01,2013-02-18 15:37:00,
2013-02-18 08:42:00,29.3,22.0,29.98,South,176,4.2,4.2,74,0.00,,---,0.00,VWS V14.01,2013-02-18 15:42:00,
2013-02-18 08:47:00,29.6,22.0,29.98,WSW,248,0.0,0.0,73,0.00,,---,0.00,VWS V14.01,2013-02-18 15:47:00,
2013-02-18 08:52:00,30.0,22.2,29.98,SW,224,2.7,5.8,72,0.00,,---,0.00,VWS V14.01,2013-02-18 15:52:00,
2013-02-18 08:57:00,30.4,22.4,29.99,SW,229,0.0,5.2,72,0.00,,---,0.00,VWS V14.01,2013-02-18 15:57:00,
2013-02-18 09:02:00,30.7,22.6,29.99,South,174,0.0,0.0,71,0.00,,---,0.00,VWS V14.01,2013-02-18 16:02:00,
2013-02-18 09:07:00,31.0,22.7,29.99,SSE,152,5.0,5.0,71,0.00,,---,0.00,VWS V14.01,2013-02-18 16:07:00,
2013-02-18 09:12:00,31.1,22.5,29.99,South,174,0.0,3.2,70,0.00,,---,0.00,VWS V14.01,2013-02-18 16:12:00,
2013-02-18 09:17:00,31.5,22.6,29.99,SW,226,0.0,5.0,69,0.00,,---,0.00,VWS V14.01,2013-02-18 16:17:00,
2013-02-18 09:22:00,31.8,22.5,29.99,South,172,0.0,0.0,68,0.00,,---,0.00,VWS V14.01,2013-02-18 16:22:00,
2013-02-18 09:27:00,32.2,22.0,29.99,South,172,0.0,0.0,66,0.00,,---,0.00,VWS V14.01,2013-02-18 16:27:00,
2013-02-18 09:32:00,32.6,21.8,29.99,SSE,165,0.0,0.0,64,0.00,,---,0.00,VWS V14.01,2013-02-18 16:32:00,
2013-02-18 09:37:00,32.9,21.9,29.99,SW,225,0.0,0.0,64,0.00,,---,0.00,VWS V14.01,2013-02-18 16:37:00,
2013-02-18 09:42:00,33.4,21.8,29.98,South,176,0.0,2.8,62,0.00,,---,0.00,VWS V14.01,2013-02-18 16:42:00,
2013-02-18 09:47:00,33.5,21.0,29.99,South,176,0.0,0.0,60,0.00,,---,0.00,VWS V14.01,2013-02-18 16:47:00,
2013-02-18 09:52:00,33.7,20.6,29.98,South,169,0.0,0.0,58,0.00,,---,0.00,VWS V14.01,2013-02-18 16:52:00,
2013-02-18 09:57:00,34.0,19.9,29.98,South,169,0.0,0.0,56,0.00,,---,0.00,VWS V14.01,2013-02-18 16:57:00,
2013-02-18 10:02:00,34.3,19.2,29.98,NNW,328,0.0,4.5,54,0.00,,---,0.00,VWS V14.01,2013-02-18 17:02:00,
2013-02-18 10:07:00,34.5,17.9,29.98,NNW,328,0.0,0.0,50,0.00,,---,0.00,VWS V14.01,2013-02-18 17:07:00,
2013-02-18 10:12:00,34.8,16.0,29.98,North,1,0.0,0.0,46,0.00,,---,0.00,VWS V14.01,2013-02-18 17:12:00,
2013-02-18 10:17:00,35.3,15.4,29.98,North,1,0.0,0.0,44,0.00,,---,0.00,VWS V14.01,2013-02-18 17:17:00,
2013-02-18 10:22:00,35.6,14.9,29.97,North,1,0.0,0.0,42,0.00,,---,0.00,VWS V14.01,2013-02-18 17:22:00,
2013-02-18 10:27:00,36.1,14.9,29.98,NNW,333,0.0,0.0,41,0.00,,---,0.00,VWS V14.01,2013-02-18 17:27:00,
2013-02-18 10:32:00,36.2,14.1,29.98,North,350,0.0,0.0,40,0.00,,---,0.00,VWS V14.01,2013-02-18 17:32:00,
2013-02-18 10:37:00,36.3,14.6,29.98,North,350,0.0,0.0,41,0.00,,---,0.00,VWS V14.01,2013-02-18 17:37:00,
2013-02-18 10:42:00,36.7,13.9,29.98,NNE,30,0.0,3.4,39,0.00,,---,0.00,VWS V14.01,2013-02-18 17:42:00,
2013-02-18 10:47:00,36.6,13.5,29.98,NNE,24,0.0,0.0,38,0.00,,---,0.00,VWS V14.01,2013-02-18 17:47:00,
2013-02-18 10:52:00,36.5,13.2,29.98,NE,45,0.0,0.0,38,0.00,,---,0.00,VWS V14.01,2013-02-18 17:52:00,
2013-02-18 10:57:00,37.0,13.1,29.98,NNW,329,0.0,0.0,37,0.00,,---,0.00,VWS V14.01,2013-02-18 17:57:00,
2013-02-18 11:02:00,37.2,12.4,29.98,NE,45,0.0,0.0,36,0.00,,---,0.00,VWS V14.01,2013-02-18 18:02:00,
2013-02-18 11:07:00,37.6,11.5,29.98,East,89,0.0,0.0,34,0.00,,---,0.00,VWS V14.01,2013-02-18 18:07:00,
2013-02-18 11:12:00,37.8,11.1,29.98,East,89,0.0,0.0,33,0.00,,---,0.00,VWS V14.01,2013-02-18 18:12:00,
2013-02-18 11:17:00,38.3,11.2,29.98,North,10,0.0,0.0,32,0.00,,---,0.00,VWS V14.01,2013-02-18 18:17:00,
2013-02-18 11:22:00,38.9,10.6,29.97,WNW,284,0.0,3.2,31,0.00,,---,0.00,VWS V14.01,2013-02-18 18:22:00,
2013-02-18 11:27:00,39.3,9.5,29.97,East,96,0.0,0.0,29,0.00,,---,0.00,VWS V14.01,2013-02-18 18:27:00,
2013-02-18 11:32:00,38.9,8.4,29.97,NNE,18,0.0,0.0,28,0.00,,---,0.00,VWS V14.01,2013-02-18 18:32:00,
2013-02-18 11:37:00,38.4,7.0,29.97,North,10,8.4,11.7,27,0.00,,---,0.00,VWS V14.01,2013-02-18 18:37:00,
2013-02-18 11:42:00,37.9,5.5,29.97,NW,315,0.0,0.0,25,0.00,,---,0.00,VWS V14.01,2013-02-18 18:42:00,
2013-02-18 11:47:00,38.4,5.7,29.97,North,11,4.2,5.5,25,0.00,,---,0.00,VWS V14.01,2013-02-18 18:47:00,
2013-02-18 11:52:00,39.2,4.9,29.97,NNE,22,7.3,8.0,23,0.00,,---,0.00,VWS V14.01,2013-02-18 18:52:00,
2013-02-18 11:57:00,39.3,4.4,29.97,West,276,4.9,5.3,23,0.00,,---,0.00,VWS V14.01,2013-02-18 18:57:00,
2013-02-18 12:02:00,39.7,3.9,29.96,NNW,346,0.0,0.0,22,0.00,,---,0.00,VWS V14.01,2013-02-18 19:02:00,
2013-02-18 12:07:00,39.9,3.2,29.97,North,11,10.7,12.4,21,0.00,,---,0.00,VWS V14.01,2013-02-18 19:07:00,
2013-02-18 12:12:00,39.9,3.3,29.96,North,4,6.3,7.7,21,0.00,,---,0.00,VWS V14.01,2013-02-18 19:12:00,
2013-02-18 12:18:00,40.1,3.8,29.95,SSW,202,0.0,0.0,22,0.00,,---,0.00,VWS V14.01,2013-02-18 19:18:00,
2013-02-18 12:23:00,40.3,2.8,29.96,North,359,0.0,0.0,20,0.00,,---,0.00,VWS V14.01,2013-02-18 19:23:00,
2013-02-18 12:27:00,40.3,1.4,29.95,North,3,0.0,10.4,19,0.00,,---,0.00,VWS V14.01,2013-02-18 19:27:00,
2013-02-18 12:32:00,40.3,1.8,29.95,West,271,4.9,6.2,19,0.00,,---,0.00,VWS V14.01,2013-02-18 19:32:00,
2013-02-18 12:38:00,40.5,0.3,29.95,North,359,0.0,0.0,18,0.00,,---,0.00,VWS V14.01,2013-02-18 19:38:00,
2013-02-18 12:43:00,40.7,1.3,29.95,North,359,0.0,0.0,19,0.00,,---,0.00,VWS V14.01,2013-02-18 19:43:00,
2013-02-18 12:48:00,41.0,0.9,29.95,North,359,0.0,0.0,18,0.00,,---,0.00,VWS V14.01,2013-02-18 19:48:00,
2013-02-18 12:53:00,40.7,1.1,29.95,NW,319,12.7,12.7,18,0.00,,---,0.00,VWS V14.01,2013-02-18 19:53:00,
2013-02-18 12:58:00,40.4,-0.1,29.95,NNW,343,18.7,19.1,18,0.00,,---,0.00,VWS V14.01,2013-02-18 19:58:00,
2013-02-18 13:03:00,40.1,0.4,29.95,NW,314,0.0,3.2,18,0.00,,---,0.00,VWS V14.01,2013-02-18 20:03:00,
2013-02-18 13:08:00,39.8,-1.5,29.95,North,359,0.0,5.2,17,0.00,,---,0.00,VWS V14.01,2013-02-18 20:08:00,
2013-02-18 13:13:00,39.6,-1.5,29.95,North,359,0.0,0.0,17,0.00,,---,0.00,VWS V14.01,2013-02-18 20:13:00,
2013-02-18 13:18:00,39.6,-1.0,29.95,North,359,6.0,14.1,18,0.00,,---,0.00,VWS V14.01,2013-02-18 20:18:00,
2013-02-18 13:23:00,39.9,-0.8,29.95,North,359,0.0,0.0,18,0.00,,---,0.00,VWS V14.01,2013-02-18 20:23:00,
2013-02-18 13:28:00,40.0,-1.3,29.95,NNE,31,14.2,14.2,17,0.00,,---,0.00,VWS V14.01,2013-02-18 20:28:00,
2013-02-18 13:33:00,39.9,-1.4,29.94,North,359,0.0,0.0,17,0.00,,---,0.00,VWS V14.01,2013-02-18 20:33:00,
2013-02-18 13:38:00,40.3,-0.2,29.94,North,359,0.0,0.0,18,0.00,,---,0.00,VWS V14.01,2013-02-18 20:38:00,
2013-02-18 13:43:00,40.7,-1.0,29.95,NNW,340,0.0,0.0,17,0.00,,---,0.00,VWS V14.01,2013-02-18 20:43:00,
2013-02-18 13:48:00,40.6,-1.2,29.95,North,1,0.0,15.8,17,0.00,,---,0.00,VWS V14.01,2013-02-18 20:48:00,
2013-02-18 13:53:00,40.5,-0.8,29.94,North,359,0.0,0.0,17,0.00,,---,0.00,VWS V14.01,2013-02-18 20:53:00,
2013-02-18 13:58:00,40.5,-0.5,29.95,North,359,0.0,0.0,17,0.00,,---,0.00,VWS V14.01,2013-02-18 20:58:00,
2013-02-18 14:03:00,40.5,0.7,29.94,North,359,0.0,0.0,18,0.00,,---,0.00,VWS V14.01,2013-02-18 21:03:00,
2013-02-18 14:08:00,40.8,1.1,29.95,North,359,0.0,8.0,18,0.00,,---,0.00,VWS V14.01,2013-02-18 21:08:00,
2013-02-18 14:13:00,40.5,-0.5,29.94,North,359,0.0,0.0,17,0.00,,---,0.00,VWS V14.01,2013-02-18 21:13:00,
2013-02-18 14:18:00,40.3,0.8,29.94,North,359,6.6,6.6,18,0.00,,---,0.00,VWS V14.01,2013-02-18 21:18:00,
2013-02-18 14:23:00,40.3,1.1,29.94,North,359,0.0,0.0,19,0.00,,---,0.00,VWS V14.01,2013-02-18 21:23:00,
2013-02-18 14:28:00,40.5,1.3,29.94,North,359,0.0,0.0,19,0.00,,---,0.00,VWS V14.01,2013-02-18 21:28:00,
2013-02-18 14:33:00,40.6,1.2,29.95,North,359,0.0,0.0,19,0.00,,---,0.00,VWS V14.01,2013-02-18 21:33:00,
2013-02-18 14:38:00,40.4,1.4,29.95,North,359,0.0,0.0,19,0.00,,---,0.00,VWS V14.01,2013-02-18 21:38:00,
2013-02-18 14:43:00,40.5,1.5,29.95,North,359,0.0,0.0,19,0.00,,---,0.00,VWS V14.01,2013-02-18 21:43:00,
2013-02-18 14:48:00,40.7,1.7,29.95,North,359,0.0,0.0,19,0.01,,---,0.01,VWS V14.01,2013-02-18 21:48:00,
2013-02-18 14:53:00,40.5,1.9,29.95,North,359,0.0,0.0,19,0.01,,---,0.01,VWS V14.01,2013-02-18 21:53:00,
2013-02-18 14:58:00,40.3,1.5,29.96,North,359,0.0,0.0,19,0.01,,---,0.01,VWS V14.01,2013-02-18 21:58:00,
2013-02-18 15:03:00,40.2,1.7,29.96,North,359,0.0,0.0,19,0.01,,---,0.01,VWS V14.01,2013-02-18 22:03:00,
2013-02-18 15:09:00,40.3,2.1,29.96,North,359,3.5,3.5,20,0.01,,---,0.01,VWS V14.01,2013-02-18 22:09:00,
2013-02-18 15:14:00,40.4,2.5,29.96,North,354,11.1,21.7,20,0.01,,---,0.01,VWS V14.01,2013-02-18 22:14:00,
2013-02-18 15:19:00,40.2,2.5,29.96,North,359,0.0,0.0,20,0.01,,---,0.01,VWS V14.01,2013-02-18 22:19:00,
2013-02-18 15:23:00,40.2,2.6,29.96,NNW,336,0.0,7.6,20,0.01,,---,0.01,VWS V14.01,2013-02-18 22:23:00,
2013-02-18 15:29:00,40.3,2.4,29.96,North,359,0.0,7.3,20,0.01,,---,0.01,VWS V14.01,2013-02-18 22:29:00,
2013-02-18 15:34:00,40.1,2.4,29.96,North,349,17.1,17.1,20,0.01,,---,0.01,VWS V14.01,2013-02-18 22:34:00,
2013-02-18 15:39:00,40.1,2.8,29.96,NW,304,0.0,0.0,20,0.01,,---,0.01,VWS V14.01,2013-02-18 22:39:00,
2013-02-18 15:44:00,40.1,2.9,29.96,North,359,0.0,13.5,21,0.01,,---,0.01,VWS V14.01,2013-02-18 22:44:00,
2013-02-18 15:49:00,40.2,2.2,29.96,North,359,0.0,0.0,20,0.01,,---,0.01,VWS V14.01,2013-02-18 22:49:00,
2013-02-18 15:54:00,40.2,1.9,29.96,NE,41,0.0,0.0,20,0.01,,---,0.01,VWS V14.01,2013-02-18 22:54:00,
2013-02-18 15:59:00,40.2,1.7,29.96,NE,41,0.0,0.0,19,0.01,,---,0.01,VWS V14.01,2013-02-18 22:59:00,
2013-02-18 16:04:00,39.9,1.4,29.96,NE,41,0.0,0.0,19,0.01,,---,0.01,VWS V14.01,2013-02-18 23:04:00,
2013-02-18 16:09:00,39.9,1.7,29.97,North,359,0.0,0.0,20,0.01,,---,0.01,VWS V14.01,2013-02-18 23:09:00,
2013-02-18 16:14:00,39.8,1.7,29.97,North,359,0.0,0.0,20,0.01,,---,0.01,VWS V14.01,2013-02-18 23:14:00,
2013-02-18 16:19:00,39.7,1.9,29.97,North,359,0.0,0.0,20,0.01,,---,0.01,VWS V14.01,2013-02-18 23:19:00,
2013-02-18 16:24:00,39.7,2.1,29.97,North,359,0.0,0.0,20,0.01,,---,0.01,VWS V14.01,2013-02-18 23:24:00,
2013-02-18 16:29:00,39.8,1.8,29.97,North,359,0.0,0.0,20,0.01,,---,0.01,VWS V14.01,2013-02-18 23:29:00,
2013-02-18 16:34:00,39.6,1.5,29.97,North,359,0.0,0.0,20,0.01,,---,0.01,VWS V14.01,2013-02-18 23:34:00,
2013-02-18 16:39:00,39.5,1.8,29.97,North,359,0.0,0.0,20,0.01,,---,0.01,VWS V14.01,2013-02-18 23:39:00,
2013-02-18 16:44:00,39.5,2.0,29.97,North,359,0.0,0.0,20,0.01,,---,0.01,VWS V14.01,2013-02-18 23:44:00,
2013-02-18 16:49:00,39.5,2.1,29.97,North,359,0.0,0.0,20,0.01,,---,0.01,VWS V14.01,2013-02-18 23:49:00,
2013-02-18 16:54:00,39.5,2.3,29.97,North,359,0.0,0.0,20,0.01,,---,0.01,VWS V14.01,2013-02-18 23:54:00,
2013-02-18 16:59:00,39.3,2.0,29.98,North,359,0.0,0.0,20,0.01,,---,0.01,VWS V14.01,2013-02-18 23:59:00,
2013-02-18 17:04:00,39.2,2.2,29.98,North,359,0.0,0.0,21,0.01,,---,0.01,VWS V14.01,2013-02-19 00:04:00,
2013-02-18 17:09:00,38.9,2.2,29.99,North,359,0.0,0.0,21,0.01,,---,0.01,VWS V14.01,2013-02-19 00:09:00,
2013-02-18 17:14:00,38.7,4.5,29.99,North,359,0.0,0.0,23,0.01,,---,0.01,VWS V14.01,2013-02-19 00:14:00,
2013-02-18 17:19:00,38.4,5.8,29.99,North,359,0.0,0.0,25,0.01,,---,0.01,VWS V14.01,2013-02-19 00:19:00,
2013-02-18 17:24:00,38.0,6.3,29.99,North,359,0.0,0.0,26,0.01,,---,0.01,VWS V14.01,2013-02-19 00:24:00,
2013-02-18 17:29:00,37.6,6.6,29.99,North,359,0.0,0.0,27,0.01,,---,0.01,VWS V14.01,2013-02-19 00:29:00,
2013-02-18 17:34:00,37.3,6.6,29.99,East,90,0.0,0.0,27,0.01,,---,0.01,VWS V14.01,2013-02-19 00:34:00,
2013-02-18 17:39:00,37.0,6.8,29.99,East,90,0.0,0.0,28,0.01,,---,0.01,VWS V14.01,2013-02-19 00:39:00,
2013-02-18 17:44:00,36.8,6.9,30.00,East,90,0.0,0.0,28,0.01,,---,0.01,VWS V14.01,2013-02-19 00:44:00,
2013-02-18 17:49:00,36.5,6.8,30.00,East,90,0.0,0.0,28,0.01,,---,0.01,VWS V14.01,2013-02-19 00:49:00,
2013-02-18 17:54:00,36.3,6.9,30.00,East,101,0.0,0.0,29,0.01,,---,0.01,VWS V14.01,2013-02-19 00:54:00,
2013-02-18 17:59:00,36.0,6.8,30.01,East,101,0.0,0.0,29,0.01,,---,0.01,VWS V14.01,2013-02-19 00:59:00,
2013-02-18 18:04:00,35.8,6.7,30.01,East,101,0.0,0.0,29,0.01,,---,0.01,VWS V14.01,2013-02-19 01:04:00,
2013-02-18 18:09:00,35.5,6.6,30.02,East,101,0.0,0.0,29,0.01,,---,0.01,VWS V14.01,2013-02-19 01:09:00,
2013-02-18 18:15:00,35.2,6.3,30.02,ESE,105,0.0,0.0,29,0.01,,---,0.01,VWS V14.01,2013-02-19 01:15:00,
2013-02-18 18:20:00,34.7,5.9,30.02,SE,141,5.2,8.1,29,0.01,,---,0.01,VWS V14.01,2013-02-19 01:20:00,
2013-02-18 18:25:00,34.3,5.9,30.02,SE,132,0.0,0.0,30,0.01,,---,0.01,VWS V14.01,2013-02-19 01:25:00,
2013-02-18 18:30:00,34.0,5.8,30.02,East,96,0.0,4.4,30,0.01,,---,0.01,VWS V14.01,2013-02-19 01:30:00,
2013-02-18 18:35:00,33.8,5.9,30.03,East,96,0.0,0.0,30,0.01,,---,0.01,VWS V14.01,2013-02-19 01:35:00,
2013-02-18 18:40:00,33.5,5.8,30.03,ESE,121,0.0,0.0,30,0.01,,---,0.01,VWS V14.01,2013-02-19 01:40:00,
2013-02-18 18:45:00,33.2,5.7,30.03,ESE,121,0.0,0.0,31,0.01,,---,0.01,VWS V14.01,2013-02-19 01:45:00,
2013-02-18 18:50:00,32.9,5.6,30.03,SE,135,0.0,0.0,31,0.01,,---,0.01,VWS V14.01,2013-02-19 01:50:00,
2013-02-18 18:55:00,32.7,5.6,30.04,ESE,122,0.0,0.0,31,0.01,,---,0.01,VWS V14.01,2013-02-19 01:55:00,
2013-02-18 19:00:00,32.5,5.5,30.04,ESE,122,0.0,0.0,31,0.01,,---,0.01,VWS V14.01,2013-02-19 02:00:00,
2013-02-18 19:05:00,32.3,5.5,30.04,ESE,122,0.0,0.0,32,0.01,,---,0.01,VWS V14.01,2013-02-19 02:05:00,
2013-02-18 19:10:00,32.2,5.6,30.04,ESE,122,0.0,0.0,32,0.01,,---,0.01,VWS V14.01,2013-02-19 02:10:00,
2013-02-18 19:15:00,32.0,5.6,30.04,ESE,121,0.0,0.0,32,0.01,,---,0.01,VWS V14.01,2013-02-19 02:15:00,
2013-02-18 19:20:00,31.9,5.7,30.04,SE,124,0.0,0.0,32,0.01,,---,0.01,VWS V14.01,2013-02-19 02:20:00,
2013-02-18 19:25:00,31.7,5.8,30.04,SE,124,0.0,0.0,33,0.01,,---,0.01,VWS V14.01,2013-02-19 02:25:00,
2013-02-18 19:30:00,31.6,6.0,30.04,SE,124,0.0,0.0,33,0.01,,---,0.01,VWS V14.01,2013-02-19 02:30:00,
2013-02-18 19:35:00,31.3,5.7,30.04,SE,124,0.0,0.0,33,0.01,,---,0.01,VWS V14.01,2013-02-19 02:35:00,
2013-02-18 19:40:00,31.1,5.6,30.04,SE,124,0.0,0.0,33,0.01,,---,0.01,VWS V14.01,2013-02-19 02:40:00,
2013-02-18 19:45:00,31.1,5.8,30.04,SE,124,0.0,0.0,34,0.01,,---,0.01,VWS V14.01,2013-02-19 02:45:00,
2013-02-18 19:50:00,30.9,6.0,30.05,SE,124,0.0,0.0,34,0.01,,---,0.01,VWS V14.01,2013-02-19 02:50:00,
2013-02-18 19:55:00,30.8,6.0,30.05,SE,124,0.0,0.0,34,0.01,,---,0.01,VWS V14.01,2013-02-19 02:55:00,
2013-02-18 20:00:00,30.5,5.8,30.05,SE,124,0.0,0.0,34,0.01,,---,0.01,VWS V14.01,2013-02-19 03:00:00,
2013-02-18 20:06:00,30.4,5.8,30.05,SE,124,0.0,0.0,35,0.01,,---,0.01,VWS V14.01,2013-02-19 03:06:00,
2013-02-18 20:11:00,30.3,5.8,30.06,SE,124,0.0,0.0,35,0.01,,---,0.01,VWS V14.01,2013-02-19 03:11:00,
2013-02-18 20:16:00,30.1,5.6,30.06,SE,124,0.0,0.0,35,0.01,,---,0.01,VWS V14.01,2013-02-19 03:16:00,
2013-02-18 20:21:00,29.8,5.6,30.06,SE,124,0.0,0.0,35,0.01,,---,0.01,VWS V14.01,2013-02-19 03:21:00,
2013-02-18 20:26:00,29.6,5.7,30.06,SE,124,0.0,0.0,36,0.01,,---,0.01,VWS V14.01,2013-02-19 03:26:00,
2013-02-18 20:31:00,29.6,5.6,30.06,SE,124,0.0,0.0,36,0.01,,---,0.01,VWS V14.01,2013-02-19 03:31:00,
2013-02-18 20:36:00,29.4,5.5,30.07,SE,124,0.0,0.0,36,0.01,,---,0.01,VWS V14.01,2013-02-19 03:36:00,
2013-02-18 20:41:00,29.4,5.6,30.07,SE,124,0.0,0.0,36,0.01,,---,0.01,VWS V14.01,2013-02-19 03:41:00,
2013-02-18 20:46:00,29.2,5.5,30.07,SE,124,0.0,0.0,36,0.01,,---,0.01,VWS V14.01,2013-02-19 03:46:00,
2013-02-18 20:51:00,29.0,5.3,30.07,SE,124,0.0,0.0,36,0.01,,---,0.01,VWS V14.01,2013-02-19 03:51:00,
2013-02-18 20:56:00,28.9,5.3,30.07,SE,124,0.0,0.0,36,0.01,,---,0.01,VWS V14.01,2013-02-19 03:56:00,
2013-02-18 21:01:00,28.8,5.5,30.07,South,183,0.0,0.0,36,0.01,,---,0.01,VWS V14.01,2013-02-19 04:01:00,
2013-02-18 21:06:00,28.6,5.4,30.08,South,183,0.0,0.0,37,0.01,,---,0.01,VWS V14.01,2013-02-19 04:06:00,
2013-02-18 21:11:00,28.6,5.5,30.08,South,183,0.0,0.0,37,0.01,,---,0.01,VWS V14.01,2013-02-19 04:11:00,
2013-02-18 21:16:00,28.4,5.5,30.08,South,183,0.0,0.0,37,0.01,,---,0.01,VWS V14.01,2013-02-19 04:16:00,
2013-02-18 21:21:00,28.3,5.4,30.08,South,183,0.0,0.0,37,0.01,,---,0.01,VWS V14.01,2013-02-19 04:21:00,
2013-02-18 21:26:00,28.2,5.4,30.08,South,183,0.0,0.0,37,0.01,,---,0.01,VWS V14.01,2013-02-19 04:26:00,
2013-02-18 21:31:00,28.1,5.6,30.08,South,183,0.0,0.0,38,0.01,,---,0.01,VWS V14.01,2013-02-19 04:31:00,
2013-02-18 21:36:00,28.0,5.6,30.08,South,183,0.0,0.0,38,0.01,,---,0.01,VWS V14.01,2013-02-19 04:36:00,
2013-02-18 21:41:00,27.8,5.6,30.08,South,183,0.0,0.0,38,0.01,,---,0.01,VWS V14.01,2013-02-19 04:41:00,
2013-02-18 21:47:00,27.7,5.6,30.08,South,183,0.0,0.0,38,0.01,,---,0.01,VWS V14.01,2013-02-19 04:47:00,
2013-02-18 21:52:00,27.5,5.5,30.08,South,183,0.0,0.0,38,0.01,,---,0.01,VWS V14.01,2013-02-19 04:52:00,
2013-02-18 21:57:00,27.5,5.7,30.08,South,183,0.0,0.0,39,0.01,,---,0.01,VWS V14.01,2013-02-19 04:57:00,
2013-02-18 22:00:00,27.4,5.7,30.08,South,183,0.0,0.0,39,0.01,,---,0.01,VWS V14.01,2013-02-19 05:00:00,
2013-02-18 22:02:00,27.2,5.5,30.08,South,183,0.0,0.0,39,0.01,,---,0.01,VWS V14.01,2013-02-19 05:02:00,
2013-02-18 22:07:00,27.1,5.6,30.08,South,183,0.0,0.0,39,0.01,,---,0.01,VWS V14.01,2013-02-19 05:07:00,
2013-02-18 22:12:00,26.8,5.6,30.08,South,183,0.0,0.0,40,0.01,,---,0.01,VWS V14.01,2013-02-19 05:12:00,
2013-02-18 22:17:00,26.6,5.7,30.08,South,183,0.0,0.0,40,0.01,,---,0.01,VWS V14.01,2013-02-19 05:17:00,
2013-02-18 22:22:00,26.5,5.7,30.08,South,183,0.0,0.0,40,0.01,,---,0.01,VWS V14.01,2013-02-19 05:22:00,
2013-02-18 22:27:00,26.5,5.8,30.08,South,183,0.0,0.0,41,0.01,,---,0.01,VWS V14.01,2013-02-19 05:27:00,
2013-02-18 22:32:00,26.3,5.8,30.08,South,183,0.0,0.0,41,0.01,,---,0.01,VWS V14.01,2013-02-19 05:32:00,
2013-02-18 22:37:00,26.1,5.7,30.08,South,183,0.0,0.0,41,0.01,,---,0.01,VWS V14.01,2013-02-19 05:37:00,
2013-02-18 22:42:00,25.9,5.8,30.08,South,183,0.0,0.0,42,0.01,,---,0.01,VWS V14.01,2013-02-19 05:42:00,
2013-02-18 22:47:00,25.7,5.7,30.08,South,183,0.0,0.0,42,0.01,,---,0.01,VWS V14.01,2013-02-19 05:47:00,
2013-02-18 22:52:00,25.5,5.7,30.08,South,183,0.0,0.0,42,0.01,,---,0.01,VWS V14.01,2013-02-19 05:52:00,
2013-02-18 22:57:00,25.4,5.8,30.08,South,183,0.0,0.0,43,0.01,,---,0.01,VWS V14.01,2013-02-19 05:57:00,
2013-02-18 22:59:00,31.8,20.4,29.77,East,100,0.0,0.0,62,0.00,,---,0.00,VWS V14.01,2013-02-19 05:59:00,
2013-02-18 23:00:00,23.4,6.3,30.07,South,183,0.0,0.0,47,0.01,,---,0.00,VWS V14.01,2013-02-19 06:00:00,
2013-02-18 23:01:00,23.4,6.3,30.07,South,183,0.0,0.0,47,0.01,,---,0.00,VWS V14.01,2013-02-19 06:01:00,
2013-02-18 23:02:00,25.1,5.8,30.08,South,183,0.0,0.0,43,0.01,,---,0.01,VWS V14.01,2013-02-19 06:02:00,
2013-02-18 23:03:00,23.3,6.2,30.07,South,183,0.0,0.0,47,0.01,,---,0.00,VWS V14.01,2013-02-19 06:03:00,
2013-02-18 23:04:00,23.3,6.3,30.07,South,183,0.0,0.0,48,0.01,,---,0.00,VWS V14.01,2013-02-19 06:04:00,
2013-02-18 23:05:00,23.3,6.3,30.07,South,183,0.0,0.0,48,0.01,,---,0.00,VWS V14.01,2013-02-19 06:05:00,
2013-02-18 23:06:00,23.3,6.3,30.07,South,183,0.0,0.0,48,0.01,,---,0.00,VWS V14.01,2013-02-19 06:06:00,
2013-02-18 23:07:00,25.0,5.9,30.08,South,183,0.0,0.0,43,0.01,,---,0.01,VWS V14.01,2013-02-19 06:07:00,
2013-02-18 23:08:00,23.3,6.4,30.07,South,183,0.0,0.0,48,0.01,,---,0.00,VWS V14.01,2013-02-19 06:08:00,
2013-02-18 23:09:00,23.3,6.4,30.07,South,183,0.0,0.0,48,0.01,,---,0.00,VWS V14.01,2013-02-19 06:09:00,
2013-02-18 23:10:00,23.3,6.5,30.07,South,183,0.0,0.0,48,0.01,,---,0.00,VWS V14.01,2013-02-19 06:10:00,
2013-02-18 23:11:00,23.3,6.5,30.07,South,183,0.0,0.0,48,0.01,,---,0.00,VWS V14.01,2013-02-19 06:11:00,
2013-02-18 23:12:00,24.9,5.9,30.08,South,183,0.0,0.0,44,0.01,,---,0.01,VWS V14.01,2013-02-19 06:12:00,
2013-02-18 23:13:00,23.2,6.4,30.07,South,183,0.0,0.0,48,0.01,,---,0.00,VWS V14.01,2013-02-19 06:13:00,
2013-02-18 23:14:00,23.2,6.3,30.07,South,183,0.0,0.0,48,0.01,,---,0.00,VWS V14.01,2013-02-19 06:14:00,
2013-02-18 23:15:00,23.2,6.4,30.07,South,183,0.0,0.0,48,0.01,,---,0.00,VWS V14.01,2013-02-19 06:15:00,
2013-02-18 23:16:00,23.2,6.4,30.07,South,183,0.0,0.0,48,0.01,,---,0.00,VWS V14.01,2013-02-19 06:16:00,
2013-02-18 23:17:00,24.8,6.0,30.08,South,183,0.0,0.0,44,0.01,,---,0.01,VWS V14.01,2013-02-19 06:17:00,
2013-02-18 23:18:00,23.1,6.3,30.07,South,183,0.0,0.0,48,0.01,,---,0.00,VWS V14.01,2013-02-19 06:18:00,
2013-02-18 23:19:00,23.1,6.4,30.07,South,183,0.0,0.0,48,0.01,,---,0.00,VWS V14.01,2013-02-19 06:19:00,
2013-02-18 23:20:00,23.1,6.4,30.07,South,183,0.0,0.0,48,0.01,,---,0.00,VWS V14.01,2013-02-19 06:20:00,
2013-02-18 23:21:00,23.0,6.3,30.06,South,183,0.0,0.0,48,0.01,,---,0.00,VWS V14.01,2013-02-19 06:21:00,
2013-02-18 23:22:00,24.5,6.0,30.07,South,183,0.0,0.0,45,0.01,,---,0.01,VWS V14.01,2013-02-19 06:22:00,
2013-02-18 23:23:00,23.0,6.4,30.06,South,183,0.0,0.0,48,0.01,,---,0.00,VWS V14.01,2013-02-19 06:23:00,
2013-02-18 23:24:00,23.0,6.4,30.06,South,183,0.0,0.0,48,0.01,,---,0.00,VWS V14.01,2013-02-19 06:24:00,
2013-02-18 23:25:00,23.0,6.4,30.06,South,183,0.0,0.0,48,0.01,,---,0.00,VWS V14.01,2013-02-19 06:25:00,
2013-02-18 23:26:00,22.9,6.3,30.06,South,183,0.0,0.0,48,0.01,,---,0.00,VWS V14.01,2013-02-19 06:26:00,
2013-02-18 23:27:00,24.4,6.2,30.07,South,183,0.0,0.0,45,0.01,,---,0.01,VWS V14.01,2013-02-19 06:27:00,
2013-02-18 23:28:00,22.9,6.3,30.06,South,183,0.0,0.0,48,0.01,,---,0.00,VWS V14.01,2013-02-19 06:28:00,
2013-02-18 23:29:00,22.9,6.3,30.06,South,183,0.0,0.0,48,0.01,,---,0.00,VWS V14.01,2013-02-19 06:29:00,
2013-02-18 23:30:00,22.9,6.3,30.06,South,183,0.0,0.0,48,0.01,,---,0.00,VWS V14.01,2013-02-19 06:30:00,
2013-02-18 23:31:00,22.8,6.2,30.06,South,183,0.0,0.0,48,0.01,,---,0.00,VWS V14.01,2013-02-19 06:31:00,
2013-02-18 23:32:00,24.3,6.3,30.08,South,183,0.0,0.0,46,0.01,,---,0.01,VWS V14.01,2013-02-19 06:32:00,
2013-02-18 23:33:00,22.8,6.3,30.06,South,183,0.0,0.0,49,0.01,,---,0.00,VWS V14.01,2013-02-19 06:33:00,
2013-02-18 23:34:00,22.7,6.2,30.06,South,183,0.0,0.0,49,0.01,,---,0.00,VWS V14.01,2013-02-19 06:34:00,
2013-02-18 23:35:00,22.7,6.3,30.06,South,183,0.0,0.0,49,0.01,,---,0.00,VWS V14.01,2013-02-19 06:35:00,
2013-02-18 23:36:00,22.7,6.3,30.06,South,183,0.0,0.0,49,0.01,,---,0.00,VWS V14.01,2013-02-19 06:36:00,
2013-02-18 23:37:00,24.1,6.2,30.07,South,183,0.0,0.0,46,0.01,,---,0.01,VWS V14.01,2013-02-19 06:37:00,
2013-02-18 23:38:00,22.6,6.2,30.06,South,183,0.0,0.0,49,0.01,,---,0.00,VWS V14.01,2013-02-19 06:38:00,
2013-02-18 23:39:00,22.6,6.2,30.06,South,183,0.0,0.0,49,0.01,,---,0.00,VWS V14.01,2013-02-19 06:39:00,
2013-02-18 23:40:00,22.6,6.3,30.06,South,183,0.0,0.0,49,0.01,,---,0.00,VWS V14.01,2013-02-19 06:40:00,
2013-02-18 23:41:00,22.6,6.3,30.06,South,183,0.0,0.0,49,0.01,,---,0.00,VWS V14.01,2013-02-19 06:41:00,
2013-02-18 23:42:00,23.9,6.2,30.07,South,183,0.0,0.0,46,0.01,,---,0.01,VWS V14.01,2013-02-19 06:42:00,
2013-02-18 23:43:00,22.4,6.1,30.06,South,183,0.0,0.0,49,0.01,,---,0.00,VWS V14.01,2013-02-19 06:43:00,
2013-02-18 23:44:00,22.4,6.2,30.06,South,183,0.0,0.0,49,0.01,,---,0.00,VWS V14.01,2013-02-19 06:44:00,
2013-02-18 23:45:00,22.3,6.1,30.06,South,183,0.0,0.0,49,0.01,,---,0.00,VWS V14.01,2013-02-19 06:45:00,
2013-02-18 23:46:00,22.3,6.2,30.06,South,183,0.0,0.0,49,0.01,,---,0.00,VWS V14.01,2013-02-19 06:46:00,
2013-02-18 23:47:00,23.7,6.2,30.07,South,183,0.0,0.0,46,0.01,,---,0.01,VWS V14.01,2013-02-19 06:47:00,
2013-02-18 23:48:00,22.2,6.1,30.05,South,183,0.0,0.0,49,0.01,,---,0.00,VWS V14.01,2013-02-19 06:48:00,
2013-02-18 23:49:00,22.2,6.2,30.06,South,183,0.0,0.0,50,0.01,,---,0.00,VWS V14.01,2013-02-19 06:49:00,
2013-02-18 23:50:00,22.2,6.2,30.06,South,183,0.0,0.0,50,0.01,,---,0.00,VWS V14.01,2013-02-19 06:50:00,
2013-02-18 23:51:00,22.1,6.2,30.06,South,183,0.0,0.0,50,0.01,,---,0.00,VWS V14.01,2013-02-19 06:51:00,
2013-02-18 23:52:00,23.5,6.2,30.07,South,183,0.0,0.0,47,0.01,,---,0.01,VWS V14.01,2013-02-19 06:52:00,
2013-02-18 23:53:00,22.1,6.3,30.06,South,183,0.0,0.0,50,0.01,,---,0.00,VWS V14.01,2013-02-19 06:53:00,
2013-02-18 23:54:00,22.0,6.2,30.06,South,183,0.0,0.0,50,0.01,,---,0.00,VWS V14.01,2013-02-19 06:54:00,
2013-02-18 23:55:00,22.0,6.2,30.06,South,183,0.0,0.0,50,0.01,,---,0.00,VWS V14.01,2013-02-19 06:55:00,
2013-02-18 23:56:00,21.9,6.2,30.06,South,183,0.0,0.0,50,0.01,,---,0.00,VWS V14.01,2013-02-19 06:56:00,
2013-02-18 23:57:00,23.5,6.4,30.07,South,183,0.0,0.0,47,0.01,,---,0.01,VWS V14.01,2013-02-19 06:57:00,
2013-02-18 23:58:00,21.9,6.3,30.06,South,183,0.0,0.0,50,0.01,,---,0.00,VWS V14.01,2013-02-19 06:58:00,
2013-02-18 23:59:00,21.8,6.2,30.05,South,183,0.0,0.0,50,0.01,,---,0.00,VWS V14.01,2013-02-19 06:59:00,